Time;durP1;ratioP1;P1;durP2;ratioP2;P2;SDS_P1;SDS_P2;PMS_P1;PMS_P2;Temp;Humidity;BMP_temperature;BMP_pressure;BME280_temperature;BME280_humidity;BME280_pressure;Samples;Min_cycle;Max_cycle;Signal;HPM_P1;HPM_P2
2022/12/02 00:01:49;;;;;;;50.83;26.92;;;5.80;99.90;;;;;;5061043;28;20242;-76
2022/12/02 00:04:36;;;;;;;56.25;29.48;;;5.90;99.90;;;;;;5069924;22;20710;-75
2022/12/02 00:07:22;;;;;;;52.25;28.10;;;5.70;99.90;;;;;;5041938;28;20220;-77
2022/12/02 00:10:22;;;;;;;51.90;27.08;;;5.70;99.90;;;;;;5044983;28;20205;-75
2022/12/02 00:13:16;;;;;;;58.47;28.48;;;5.70;99.90;;;;;;5043967;28;20252;-75
2022/12/02 00:16:03;;;;;;;58.00;27.20;;;5.70;99.90;;;;;;5032076;28;20247;-75
2022/12/02 00:18:51;;;;;;;55.42;26.15;;;5.80;99.90;;;;;;5039230;28;20225;-74
2022/12/02 00:21:36;;;;;;;64.05;30.80;;;5.80;99.90;;;;;;5038179;28;20206;-74
2022/12/02 00:24:22;;;;;;;52.10;27.50;;;5.70;99.90;;;;;;5044235;28;20631;-75
2022/12/02 00:27:08;;;;;;;52.47;27.33;;;5.70;99.90;;;;;;5037359;28;20526;-75
2022/12/02 00:29:53;;;;;;;58.25;27.75;;;5.70;99.90;;;;;;5042800;28;20229;-74
2022/12/02 00:32:39;;;;;;;54.17;25.80;;;5.70;99.90;;;;;;5044888;28;20246;-75
2022/12/02 00:35:26;;;;;;;58.33;27.13;;;5.80;99.90;;;;;;5041778;28;20331;-75
2022/12/02 00:38:12;;;;;;;61.95;27.02;;;5.80;99.90;;;;;;5037526;28;20676;-75
2022/12/02 00:40:57;;;;;;;54.33;27.80;;;5.80;99.90;;;;;;5048999;28;20204;-75
2022/12/02 00:46:46;;;;;;;59.60;30.05;;;5.80;99.90;;;;;;5052339;28;20205;-74
2022/12/02 00:49:32;;;;;;;47.33;27.63;;;5.60;99.90;;;;;;5046098;28;20302;-75
2022/12/02 00:52:19;;;;;;;52.90;28.83;;;5.60;99.90;;;;;;5053072;28;20201;-74
2022/12/02 00:55:05;;;;;;;51.17;28.42;;;5.70;99.90;;;;;;5047380;28;20209;-74
2022/12/02 00:57:51;;;;;;;54.22;25.45;;;5.70;99.90;;;;;;5048338;28;20205;-74
2022/12/02 01:00:36;;;;;;;49.47;26.20;;;5.80;99.90;;;;;;5053095;28;20267;-74
2022/12/02 01:03:22;;;;;;;48.05;25.48;;;5.80;99.90;;;;;;5053101;28;20232;-74
2022/12/02 01:06:08;;;;;;;48.50;24.25;;;5.80;99.90;;;;;;5051792;28;20201;-74
2022/12/02 01:08:55;;;;;;;56.08;28.27;;;5.80;99.90;;;;;;5043826;28;20204;-75
2022/12/02 01:11:40;;;;;;;54.08;26.70;;;5.80;99.90;;;;;;5050033;28;20205;-75
2022/12/02 01:14:26;;;;;;;58.30;28.00;;;5.80;99.90;;;;;;5037770;28;20224;-75
2022/12/02 01:17:11;;;;;;;49.88;27.25;;;5.80;99.90;;;;;;5041815;28;20303;-74
2022/12/02 01:19:57;;;;;;;53.42;26.02;;;5.80;99.90;;;;;;5051368;28;20279;-75
2022/12/02 01:22:43;;;;;;;48.47;26.95;;;5.70;99.90;;;;;;5052228;28;20307;-74
2022/12/02 01:25:29;;;;;;;49.20;27.58;;;5.70;99.90;;;;;;5047244;28;20205;-75
2022/12/02 01:28:15;;;;;;;57.05;28.35;;;5.70;99.90;;;;;;5047189;28;20571;-75
2022/12/02 01:31:01;;;;;;;46.25;25.17;;;5.70;99.90;;;;;;5042350;28;20213;-74
2022/12/02 01:33:46;;;;;;;46.00;26.15;;;5.80;99.90;;;;;;5046632;28;20229;-75
2022/12/02 01:36:32;;;;;;;46.72;25.73;;;5.80;99.90;;;;;;5047771;28;20566;-75
2022/12/02 01:39:17;;;;;;;48.35;24.05;;;5.80;99.90;;;;;;5042932;28;20205;-74
2022/12/02 01:42:05;;;;;;;55.97;27.98;;;5.80;99.90;;;;;;5048910;28;20568;-74
2022/12/02 01:44:51;;;;;;;47.20;24.50;;;5.70;99.90;;;;;;5051443;28;20585;-74
2022/12/02 01:47:38;;;;;;;48.50;24.67;;;5.80;99.90;;;;;;5045137;28;20201;-74
2022/12/02 01:50:23;;;;;;;49.22;25.67;;;5.70;99.90;;;;;;5049138;28;20227;-75
2022/12/02 01:53:09;;;;;;;49.75;25.23;;;5.80;99.90;;;;;;5048678;28;20224;-74
2022/12/02 01:55:55;;;;;;;49.80;25.15;;;5.80;99.90;;;;;;5049426;28;20208;-75
2022/12/02 01:58:42;;;;;;;54.90;25.65;;;5.80;99.90;;;;;;5043805;28;20271;-75
2022/12/02 02:01:31;;;;;;;54.90;26.23;;;5.80;99.90;;;;;;5049374;28;20204;-74
2022/12/02 02:04:17;;;;;;;52.28;25.50;;;5.80;99.90;;;;;;5043184;28;20233;-74
2022/12/02 02:07:02;;;;;;;54.17;25.52;;;5.80;99.90;;;;;;5046377;28;20209;-75
2022/12/02 02:09:48;;;;;;;48.50;23.75;;;5.70;99.90;;;;;;5047712;28;20324;-74
2022/12/02 02:12:34;;;;;;;49.15;25.65;;;5.70;99.90;;;;;;5048333;28;20243;-75
2022/12/02 02:15:22;;;;;;;50.38;26.52;;;5.70;99.90;;;;;;5049141;28;20255;-74
2022/12/02 02:18:08;;;;;;;51.75;25.23;;;5.70;99.90;;;;;;5038999;28;20206;-75
2022/12/02 02:20:56;;;;;;;46.08;23.95;;;5.60;99.90;;;;;;5048892;28;20231;-74
2022/12/02 02:23:43;;;;;;;41.08;22.42;;;5.70;99.90;;;;;;5043030;28;20237;-74
2022/12/02 02:26:29;;;;;;;47.13;23.05;;;5.60;99.90;;;;;;5044209;28;20201;-75
2022/12/02 02:29:14;;;;;;;47.72;25.27;;;5.70;99.90;;;;;;5049906;28;20205;-75
2022/12/02 02:32:00;;;;;;;40.28;22.52;;;5.70;99.90;;;;;;5044018;28;20205;-74
2022/12/02 02:34:46;;;;;;;43.85;25.65;;;5.70;99.90;;;;;;5048196;28;20225;-74
2022/12/02 02:37:31;;;;;;;48.17;24.85;;;5.80;99.90;;;;;;5043280;28;20283;-74
2022/12/02 02:40:20;;;;;;;46.20;24.75;;;5.90;99.90;;;;;;5043195;28;20205;-74
2022/12/02 02:43:06;;;;;;;41.58;22.35;;;5.90;99.90;;;;;;5044810;28;20279;-75
2022/12/02 02:45:54;;;;;;;43.05;24.25;;;5.90;99.90;;;;;;5052666;28;20291;-74
2022/12/02 02:48:40;;;;;;;44.47;24.13;;;5.90;99.90;;;;;;5048044;28;20213;-75
2022/12/02 02:51:25;;;;;;;52.00;24.23;;;6.00;99.90;;;;;;5048168;28;20205;-75
2022/12/02 02:54:11;;;;;;;46.55;24.08;;;6.00;99.90;;;;;;5041101;28;20225;-74
2022/12/02 02:56:58;;;;;;;40.85;23.95;;;6.00;99.90;;;;;;5043096;28;20251;-75
2022/12/02 02:59:45;;;;;;;44.63;23.88;;;6.00;99.90;;;;;;5045632;28;20286;-74
2022/12/02 03:02:31;;;;;;;48.35;22.95;;;5.90;99.90;;;;;;5051027;28;20236;-73
2022/12/02 03:05:17;;;;;;;50.22;24.77;;;6.00;99.90;;;;;;5044724;28;20263;-74
2022/12/02 03:08:03;;;;;;;43.83;23.50;;;6.00;99.90;;;;;;5044508;28;20208;-75
2022/12/02 03:10:50;;;;;;;45.28;22.08;;;6.00;99.90;;;;;;5045212;28;20340;-75
2022/12/02 03:13:39;;;;;;;44.83;25.08;;;6.00;99.90;;;;;;5048312;28;20228;-74
2022/12/02 03:16:26;;;;;;;46.65;24.00;;;5.90;99.90;;;;;;5039096;28;20208;-74
2022/12/02 03:19:11;;;;;;;46.42;25.60;;;5.90;99.90;;;;;;5050267;28;20320;-74
2022/12/02 03:21:58;;;;;;;42.08;22.63;;;5.90;99.90;;;;;;5043195;28;20331;-74
2022/12/02 03:24:44;;;;;;;45.35;23.70;;;5.80;99.90;;;;;;5049537;28;20240;-74
2022/12/02 03:27:30;;;;;;;45.42;24.25;;;5.80;99.90;;;;;;5040996;28;20204;-74
2022/12/02 03:30:17;;;;;;;41.38;23.23;;;5.70;99.90;;;;;;5050057;28;20209;-75
2022/12/02 03:33:02;;;;;;;50.20;24.02;;;5.70;99.90;;;;;;5049499;28;20217;-75
2022/12/02 03:35:49;;;;;;;49.13;23.38;;;5.70;99.90;;;;;;5041676;28;20209;-74
2022/12/02 03:38:35;;;;;;;46.85;25.35;;;5.70;99.90;;;;;;5043580;28;20757;-74
2022/12/02 03:41:22;;;;;;;45.45;23.40;;;5.80;99.90;;;;;;5048370;28;20211;-74
2022/12/02 03:44:07;;;;;;;47.40;22.95;;;5.80;99.90;;;;;;5044914;28;20808;-75
2022/12/02 03:46:55;;;;;;;43.08;23.20;;;5.80;99.90;;;;;;5044046;28;20212;-75
2022/12/02 03:49:40;;;;;;;44.53;22.73;;;5.70;99.90;;;;;;5048724;28;20229;-74
2022/12/02 03:52:27;;;;;;;46.70;23.83;;;5.80;99.90;;;;;;5047775;28;20212;-74
2022/12/02 03:55:13;;;;;;;41.55;22.55;;;5.70;99.90;;;;;;5045267;28;20268;-75
2022/12/02 03:58:03;;;;;;;40.97;23.40;;;5.70;99.90;;;;;;5041656;28;20210;-74
2022/12/02 04:00:49;;;;;;;45.22;23.65;;;5.80;99.90;;;;;;5046589;28;20205;-74
2022/12/02 04:03:36;;;;;;;46.78;24.88;;;5.70;99.90;;;;;;5047136;28;20543;-74
2022/12/02 04:06:21;;;;;;;52.00;25.88;;;5.80;99.90;;;;;;5043374;28;20287;-75
2022/12/02 04:09:07;;;;;;;47.53;23.38;;;5.70;99.90;;;;;;5045685;28;20201;-74
2022/12/02 04:11:52;;;;;;;43.80;23.42;;;5.60;99.90;;;;;;5046503;28;20208;-74
2022/12/02 04:14:38;;;;;;;41.42;21.33;;;5.60;99.90;;;;;;5043374;28;20306;-75
2022/12/02 04:17:23;;;;;;;41.47;23.08;;;5.60;99.90;;;;;;5048966;28;20247;-75
2022/12/02 04:20:12;;;;;;;44.80;24.05;;;5.60;99.90;;;;;;5050511;28;20251;-75
2022/12/02 04:22:58;;;;;;;46.20;23.67;;;5.70;99.90;;;;;;5042446;28;20753;-74
2022/12/02 04:25:43;;;;;;;43.05;23.83;;;5.70;99.90;;;;;;5045118;28;20256;-74
2022/12/02 04:28:29;;;;;;;41.90;23.00;;;5.60;99.90;;;;;;5052767;28;20225;-74
2022/12/02 04:31:15;;;;;;;50.90;23.85;;;5.60;99.90;;;;;;5047355;28;20799;-74
2022/12/02 04:34:00;;;;;;;41.55;24.35;;;5.70;99.90;;;;;;5044143;28;20225;-74
2022/12/02 04:36:48;;;;;;;41.63;22.63;;;5.70;99.90;;;;;;5046209;28;20701;-75
2022/12/02 04:39:33;;;;;;;51.40;24.42;;;5.70;99.90;;;;;;5047676;28;20201;-74
2022/12/02 04:42:18;;;;;;;42.85;23.15;;;5.70;99.90;;;;;;5047355;28;20556;-74
2022/12/02 04:45:05;;;;;;;43.35;21.88;;;5.70;99.90;;;;;;5045505;28;20221;-75
2022/12/02 04:47:50;;;;;;;47.13;23.77;;;5.70;99.90;;;;;;5053543;28;20721;-74
2022/12/02 04:50:36;;;;;;;45.60;23.75;;;5.70;99.90;;;;;;5050373;28;20204;-74
2022/12/02 04:53:23;;;;;;;44.95;22.83;;;5.80;99.90;;;;;;5051255;28;20221;-74
2022/12/02 04:56:08;;;;;;;42.08;23.75;;;5.80;99.90;;;;;;5049473;28;20209;-74
2022/12/02 04:58:53;;;;;;;37.47;22.48;;;5.70;99.90;;;;;;5045150;28;20206;-74
2022/12/02 05:01:39;;;;;;;47.53;23.20;;;5.70;99.90;;;;;;5049745;28;20243;-75
2022/12/02 05:04:25;;;;;;;45.13;23.30;;;5.60;99.90;;;;;;5043765;28;20449;-74
2022/12/02 05:07:10;;;;;;;44.80;22.75;;;5.60;99.90;;;;;;5049183;28;20208;-74
2022/12/02 05:09:57;;;;;;;41.25;23.60;;;5.70;99.90;;;;;;5047405;28;20688;-74
2022/12/02 05:12:42;;;;;;;43.35;21.80;;;5.70;99.90;;;;;;5052366;28;20675;-74
2022/12/02 05:15:28;;;;;;;44.30;23.40;;;5.70;99.90;;;;;;5042154;28;20197;-75
2022/12/02 05:18:14;;;;;;;41.58;23.48;;;5.60;99.90;;;;;;5044210;28;20320;-75
2022/12/02 05:21:00;;;;;;;45.35;23.70;;;5.50;99.90;;;;;;5053126;28;20205;-75
2022/12/02 05:23:45;;;;;;;41.40;21.65;;;5.60;99.90;;;;;;5045043;28;20637;-74
2022/12/02 05:26:32;;;;;;;42.00;23.00;;;5.60;99.90;;;;;;5050320;28;20242;-75
2022/12/02 05:29:18;;;;;;;39.88;22.67;;;5.70;99.90;;;;;;5047452;28;20189;-75
2022/12/02 05:32:03;;;;;;;44.47;22.63;;;5.70;99.90;;;;;;5051634;28;20208;-74
2022/12/02 05:34:49;;;;;;;42.88;22.80;;;5.60;99.90;;;;;;5046849;28;20220;-74
2022/12/02 05:37:34;;;;;;;45.40;23.63;;;5.60;99.90;;;;;;5046214;28;20283;-74
2022/12/02 05:40:20;;;;;;;48.42;23.95;;;5.60;99.90;;;;;;5050715;28;20212;-75
2022/12/02 05:43:16;;;;;;;50.47;25.08;;;5.60;99.90;;;;;;5049391;28;21212;-75
2022/12/02 05:46:05;;;;;;;43.53;23.85;;;5.50;99.90;;;;;;5046384;28;20200;-75
2022/12/02 05:48:51;;;;;;;39.78;24.00;;;5.60;99.90;;;;;;5045353;28;20224;-74
2022/12/02 05:51:36;;;;;;;45.42;22.38;;;5.50;99.90;;;;;;5050085;28;20205;-75
2022/12/02 05:54:22;;;;;;;44.50;24.40;;;5.60;99.90;;;;;;5043679;28;20221;-74
2022/12/02 05:57:12;;;;;;;40.63;22.17;;;5.60;99.90;;;;;;5044924;28;20205;-74
2022/12/02 06:00:11;;;;;;;38.88;23.00;;;5.50;99.90;;;;;;5048660;28;20208;-74
2022/12/02 06:02:59;;;;;;;46.38;25.45;;;5.40;99.90;;;;;;5042674;28;20264;-75
2022/12/02 06:05:45;;;;;;;43.05;24.80;;;5.40;99.90;;;;;;5045587;28;20225;-77
2022/12/02 06:08:33;;;;;;;47.60;24.88;;;5.40;99.90;;;;;;5050102;28;20205;-76
2022/12/02 06:11:27;;;;;;;44.55;24.52;;;5.40;99.90;;;;;;5052392;28;20298;-77
2022/12/02 06:14:16;;;;;;;51.10;24.15;;;5.40;99.90;;;;;;5043191;28;20326;-74
2022/12/02 06:17:13;;;;;;;42.72;23.38;;;5.40;99.90;;;;;;5042577;28;20269;-77
2022/12/02 06:19:59;;;;;;;39.58;23.48;;;5.30;99.90;;;;;;5048565;28;20201;-77
2022/12/02 06:22:45;;;;;;;41.97;22.52;;;5.40;99.90;;;;;;5045964;28;20208;-77
2022/12/02 06:25:32;;;;;;;45.78;23.20;;;5.40;99.90;;;;;;5040868;28;20221;-76
2022/12/02 06:28:25;;;;;;;46.40;25.15;;;5.40;99.90;;;;;;5045614;28;20220;-77
2022/12/02 06:31:16;;;;;;;47.53;25.60;;;5.40;99.90;;;;;;5050559;28;20200;-77
2022/12/02 06:34:19;;;;;;;47.13;25.42;;;5.50;99.90;;;;;;5041575;28;20818;-77
2022/12/02 06:37:13;;;;;;;42.33;22.58;;;5.50;99.90;;;;;;5036645;28;20220;-77
2022/12/02 06:40:00;;;;;;;52.22;27.60;;;5.50;99.90;;;;;;5048102;28;20697;-77
2022/12/02 06:42:45;;;;;;;44.47;23.33;;;5.40;99.90;;;;;;5042297;28;20317;-77
2022/12/02 06:45:33;;;;;;;43.42;22.40;;;5.40;99.90;;;;;;5049031;28;20241;-77
2022/12/02 06:48:26;;;;;;;41.15;22.42;;;5.40;99.90;;;;;;5045084;28;20716;-77
2022/12/02 06:51:19;;;;;;;39.80;22.40;;;5.40;99.90;;;;;;5045002;28;20205;-77
2022/12/02 06:54:13;;;;;;;51.10;26.50;;;5.40;99.90;;;;;;5046951;28;20216;-77
2022/12/02 06:57:02;;;;;;;50.78;24.27;;;5.30;99.90;;;;;;5043279;28;20331;-77
2022/12/02 06:59:49;;;;;;;49.17;26.90;;;5.30;99.90;;;;;;5047768;28;20208;-77
2022/12/02 07:02:35;;;;;;;45.10;25.90;;;5.40;99.90;;;;;;5042996;28;20678;-75
2022/12/02 07:05:22;;;;;;;45.22;23.65;;;5.40;99.90;;;;;;5048452;28;20221;-77
2022/12/02 07:08:09;;;;;;;52.20;24.73;;;5.40;99.90;;;;;;5049293;28;20208;-77
2022/12/02 07:10:55;;;;;;;48.60;24.50;;;5.40;99.90;;;;;;5050117;28;20201;-77
2022/12/02 07:13:40;;;;;;;48.10;24.80;;;5.40;99.90;;;;;;5043221;28;20224;-77
2022/12/02 07:16:34;;;;;;;47.08;25.55;;;5.40;99.90;;;;;;5046206;28;20201;-77
2022/12/02 07:19:23;;;;;;;55.65;24.70;;;5.40;99.90;;;;;;5045436;28;20579;-77
2022/12/02 07:22:15;;;;;;;52.83;24.88;;;5.30;99.90;;;;;;5040826;28;20206;-77
2022/12/02 07:25:31;;;;;;;53.58;26.63;;;5.30;99.90;;;;;;5049144;28;20385;-74
2022/12/02 07:28:32;;;;;;;51.83;26.73;;;5.40;99.90;;;;;;5044637;28;20731;-77
2022/12/02 07:31:21;;;;;;;43.72;23.55;;;5.50;99.90;;;;;;5044748;28;20581;-77
2022/12/02 07:34:06;;;;;;;44.13;24.67;;;5.50;99.90;;;;;;5041510;28;20225;-74
2022/12/02 07:36:52;;;;;;;49.05;24.98;;;5.50;99.90;;;;;;5042162;28;20335;-77
2022/12/02 07:39:37;;;;;;;50.80;23.02;;;5.50;99.90;;;;;;5050869;28;20231;-77
2022/12/02 07:42:25;;;;;;;49.50;26.55;;;5.50;99.90;;;;;;5038321;28;20571;-74
2022/12/02 07:45:11;;;;;;;44.55;22.55;;;5.50;99.90;;;;;;5039969;28;20224;-77
2022/12/02 07:47:57;;;;;;;51.83;24.90;;;5.50;99.90;;;;;;5042457;28;20329;-76
2022/12/02 07:50:42;;;;;;;42.53;22.50;;;5.50;99.90;;;;;;5050911;28;20221;-76
2022/12/02 07:53:27;;;;;;;45.53;23.35;;;5.50;99.90;;;;;;5045583;28;20788;-76
2022/12/02 07:56:13;;;;;;;42.92;24.15;;;5.40;99.90;;;;;;5042810;28;20566;-77
2022/12/02 07:59:01;;;;;;;45.08;23.38;;;5.50;99.90;;;;;;5044874;28;20574;-77
2022/12/02 08:01:46;;;;;;;44.75;25.83;;;5.40;99.90;;;;;;5044665;28;20255;-77
2022/12/02 08:04:32;;;;;;;42.80;24.55;;;5.50;99.90;;;;;;5049960;28;20633;-76
2022/12/02 08:07:17;;;;;;;51.15;24.80;;;5.60;99.90;;;;;;5053943;28;20208;-75
2022/12/02 08:10:04;;;;;;;44.15;24.67;;;5.60;99.90;;;;;;5051114;28;20216;-75
2022/12/02 08:12:50;;;;;;;46.80;23.17;;;5.60;99.90;;;;;;5047963;28;20744;-75
2022/12/02 08:15:36;;;;;;;45.03;22.08;;;5.70;99.90;;;;;;5048092;28;20200;-74
2022/12/02 08:18:22;;;;;;;41.40;22.58;;;5.70;99.90;;;;;;5047670;28;20676;-75
2022/12/02 08:21:07;;;;;;;39.15;20.90;;;5.70;99.90;;;;;;5043875;28;20602;-77
2022/12/02 08:23:53;;;;;;;40.63;21.58;;;5.60;99.90;;;;;;5049158;28;20594;-76
2022/12/02 08:26:38;;;;;;;46.55;23.73;;;5.60;99.90;;;;;;5051375;28;20302;-76
2022/12/02 08:29:24;;;;;;;39.30;21.75;;;5.60;99.90;;;;;;5043848;28;20221;-76
2022/12/02 08:32:11;;;;;;;39.10;20.80;;;5.50;99.90;;;;;;5051940;28;20196;-76
2022/12/02 08:34:56;;;;;;;44.25;21.35;;;5.50;99.90;;;;;;5045688;28;20230;-76
2022/12/02 08:37:42;;;;;;;40.50;22.40;;;5.50;99.90;;;;;;5047407;28;20752;-77
2022/12/02 08:40:28;;;;;;;41.03;21.17;;;5.50;99.90;;;;;;5048707;28;20213;-74
2022/12/02 08:43:13;;;;;;;30.73;18.83;;;5.50;99.90;;;;;;5048608;28;20572;-77
2022/12/02 08:45:59;;;;;;;39.85;21.88;;;5.50;99.90;;;;;;5045842;28;20228;-75
2022/12/02 08:48:46;;;;;;;35.15;19.92;;;5.50;99.90;;;;;;5047703;28;20480;-77
2022/12/02 08:51:31;;;;;;;44.60;21.95;;;5.50;99.90;;;;;;5050567;28;20264;-77
2022/12/02 08:54:17;;;;;;;37.03;20.95;;;5.50;99.90;;;;;;5048631;28;20244;-76
2022/12/02 08:57:02;;;;;;;45.47;23.00;;;5.50;99.90;;;;;;5047021;28;20205;-77
2022/12/02 08:59:48;;;;;;;34.55;20.13;;;5.60;99.90;;;;;;5042439;28;20283;-77
2022/12/02 09:02:34;;;;;;;36.45;19.65;;;5.60;99.90;;;;;;5049845;28;20228;-76
2022/12/02 09:05:21;;;;;;;36.47;19.73;;;5.60;99.90;;;;;;5048418;28;20343;-77
2022/12/02 09:08:07;;;;;;;40.13;21.40;;;5.40;99.90;;;;;;5041294;28;20251;-74
2022/12/02 09:10:54;;;;;;;31.42;19.52;;;5.40;99.90;;;;;;5047489;28;20327;-77
2022/12/02 09:13:39;;;;;;;38.75;21.10;;;5.50;99.90;;;;;;5050487;28;20221;-77
2022/12/02 09:16:25;;;;;;;45.70;24.17;;;5.50;99.90;;;;;;5033498;28;20197;-77
2022/12/02 09:19:11;;;;;;;40.95;22.10;;;5.50;99.90;;;;;;5044192;28;20200;-76
2022/12/02 09:21:58;;;;;;;39.22;20.92;;;5.50;99.90;;;;;;5045210;28;20209;-77
2022/12/02 09:24:45;;;;;;;36.70;20.50;;;5.60;99.90;;;;;;5050844;28;20343;-75
2022/12/02 09:27:30;;;;;;;37.45;18.65;;;5.50;99.90;;;;;;5050059;28;20681;-74
2022/12/02 09:30:16;;;;;;;32.47;19.00;;;5.60;99.90;;;;;;5051515;28;20204;-77
2022/12/02 09:33:02;;;;;;;37.35;20.42;;;5.70;99.90;;;;;;5051822;28;20243;-77
2022/12/02 09:35:47;;;;;;;38.17;19.85;;;5.60;99.90;;;;;;5051892;28;20673;-76
2022/12/02 09:38:34;;;;;;;35.35;19.25;;;5.60;99.90;;;;;;5041471;28;20205;-77
2022/12/02 09:41:19;;;;;;;34.17;16.67;;;5.60;99.90;;;;;;5050962;28;20591;-77
2022/12/02 09:44:05;;;;;;;32.10;17.65;;;5.60;99.90;;;;;;5041752;28;20241;-76
2022/12/02 09:46:51;;;;;;;33.90;18.83;;;5.60;99.90;;;;;;5051901;28;20287;-76
2022/12/02 09:49:37;;;;;;;28.23;17.33;;;5.60;99.90;;;;;;5044891;28;20693;-77
2022/12/02 09:52:24;;;;;;;30.27;16.77;;;5.60;99.90;;;;;;5050904;28;20267;-77
2022/12/02 09:55:15;;;;;;;31.30;16.97;;;5.60;99.90;;;;;;5041064;28;20649;-77
2022/12/02 09:58:11;;;;;;;26.38;16.20;;;5.70;99.90;;;;;;5037079;28;20496;-77
2022/12/02 10:00:57;;;;;;;25.90;15.18;;;5.70;99.90;;;;;;5052296;28;20208;-76
2022/12/02 10:03:44;;;;;;;28.73;15.93;;;5.70;99.90;;;;;;5050017;28;20244;-77
2022/12/02 10:06:30;;;;;;;22.77;13.70;;;5.70;99.90;;;;;;5051654;28;20221;-76
2022/12/02 10:09:17;;;;;;;25.13;14.18;;;5.80;99.90;;;;;;5048848;28;20248;-75
2022/12/02 10:12:05;;;;;;;23.45;14.90;;;5.80;99.90;;;;;;5038248;28;20204;-77
2022/12/02 10:14:51;;;;;;;19.83;12.52;;;5.70;99.90;;;;;;5050430;28;20722;-74
2022/12/02 10:17:37;;;;;;;22.85;13.48;;;5.70;99.90;;;;;;5047016;28;20740;-77
2022/12/02 10:20:25;;;;;;;24.48;14.82;;;5.70;99.90;;;;;;5048555;28;20710;-75
2022/12/02 10:23:14;;;;;;;21.95;14.25;;;5.70;99.90;;;;;;5050329;28;20221;-76
2022/12/02 10:26:12;;;;;;;31.45;19.05;;;5.70;99.90;;;;;;5045543;28;20306;-76
2022/12/02 10:29:07;;;;;;;33.30;18.60;;;5.70;99.90;;;;;;5041153;28;20614;-74
2022/12/02 10:31:58;;;;;;;20.50;14.77;;;5.70;99.90;;;;;;5044059;28;20205;-77
2022/12/02 10:34:46;;;;;;;25.08;15.02;;;5.60;99.90;;;;;;5042854;28;20298;-76
2022/12/02 10:37:33;;;;;;;27.13;17.05;;;5.70;99.90;;;;;;5043267;28;20782;-74
2022/12/02 10:40:21;;;;;;;23.77;15.85;;;5.70;99.90;;;;;;5051162;28;20569;-76
2022/12/02 10:43:10;;;;;;;25.83;18.92;;;5.80;99.90;;;;;;5045826;28;20220;-75
2022/12/02 10:45:58;;;;;;;29.38;18.85;;;5.80;99.90;;;;;;5039700;28;20356;-75
2022/12/02 10:48:43;;;;;;;27.27;16.52;;;5.70;99.90;;;;;;5045578;28;20223;-76
2022/12/02 10:51:29;;;;;;;21.60;14.25;;;5.70;99.90;;;;;;5051248;28;20201;-76
2022/12/02 10:54:23;;;;;;;20.90;13.52;;;5.60;99.90;;;;;;5043632;28;20221;-75
2022/12/02 10:57:13;;;;;;;21.55;13.32;;;5.60;99.90;;;;;;5043733;28;20205;-76
2022/12/02 11:00:03;;;;;;;24.30;14.48;;;5.60;99.90;;;;;;5048975;28;20247;-76
2022/12/02 11:02:52;;;;;;;17.20;11.80;;;5.70;99.90;;;;;;5047924;28;20209;-76
2022/12/02 11:05:41;;;;;;;19.20;13.15;;;5.70;99.90;;;;;;5045394;28;20228;-77
2022/12/02 11:08:28;;;;;;;17.75;11.43;;;5.70;99.90;;;;;;5046577;28;20204;-77
2022/12/02 11:11:16;;;;;;;18.05;10.95;;;5.70;99.90;;;;;;5047747;28;20574;-77
2022/12/02 11:14:03;;;;;;;15.93;10.32;;;5.70;99.90;;;;;;5049922;28;20279;-77
2022/12/02 11:17:05;;;;;;;14.32;10.15;;;5.80;99.90;;;;;;5043869;28;20213;-77
2022/12/02 11:19:52;;;;;;;18.80;11.40;;;5.70;99.90;;;;;;5049482;28;20330;-77
2022/12/02 11:23:05;;;;;;;15.82;9.75;;;5.70;99.90;;;;;;5044687;28;20205;-77
2022/12/02 11:25:53;;;;;;;13.25;9.18;;;5.60;99.90;;;;;;5047980;28;20315;-77
2022/12/02 11:29:02;;;;;;;13.15;9.15;;;5.60;99.90;;;;;;5048501;28;20565;-76
2022/12/02 11:32:14;;;;;;;13.93;9.30;;;5.60;99.90;;;;;;5040682;28;20211;-77
2022/12/02 11:35:02;;;;;;;14.30;10.13;;;5.60;99.90;;;;;;5042800;28;20205;-76
2022/12/02 11:37:48;;;;;;;14.88;9.65;;;5.60;99.90;;;;;;5045219;28;20208;-77
2022/12/02 11:40:59;;;;;;;13.10;8.52;;;5.50;99.90;;;;;;5049028;28;20716;-77
2022/12/02 11:44:22;;;;;;;14.57;9.80;;;5.50;99.90;;;;;;5047862;28;20222;-77
2022/12/02 11:47:25;;;;;;;16.27;8.63;;;5.50;99.90;;;;;;5045686;28;20224;-77
2022/12/02 11:50:22;;;;;;;12.75;8.60;;;5.50;99.90;;;;;;5044261;28;20749;-76
2022/12/02 11:53:15;;;;;;;11.77;8.73;;;5.50;99.90;;;;;;5044027;28;20331;-77
2022/12/02 11:56:00;;;;;;;13.40;9.32;;;5.50;99.90;;;;;;5044324;28;20201;-77
2022/12/02 11:58:46;;;;;;;13.35;9.15;;;5.50;99.90;;;;;;5041820;28;20686;-76
2022/12/02 12:01:31;;;;;;;11.60;7.75;;;5.40;99.90;;;;;;5048032;28;20696;-77
2022/12/02 12:04:24;;;;;;;14.40;9.18;;;5.40;99.90;;;;;;5045330;28;20236;-74
2022/12/02 12:07:12;;;;;;;16.27;9.05;;;5.40;99.90;;;;;;5046699;28;20324;-72
2022/12/02 12:09:58;;;;;;;13.48;8.88;;;5.40;99.90;;;;;;5050471;28;20204;-72
2022/12/02 12:13:10;;;;;;;10.43;8.10;;;5.30;99.90;;;;;;5049016;28;20217;-73
2022/12/02 12:15:58;;;;;;;11.57;8.52;;;5.40;99.90;;;;;;5042893;28;20200;-72
2022/12/02 12:18:46;;;;;;;10.77;8.05;;;5.40;99.90;;;;;;5049702;28;20204;-73
2022/12/02 12:21:44;;;;;;;9.73;7.53;;;5.40;99.90;;;;;;5046736;28;20205;-73
2022/12/02 12:24:34;;;;;;;9.68;7.72;;;5.50;99.90;;;;;;5045525;28;20229;-73
2022/12/02 12:27:38;;;;;;;8.70;6.82;;;5.40;99.90;;;;;;5046588;28;20324;-73
2022/12/02 12:30:23;;;;;;;10.82;8.30;;;5.50;99.90;;;;;;5048847;28;20196;-73
2022/12/02 12:33:09;;;;;;;12.75;7.88;;;5.50;99.90;;;;;;5048224;28;20367;-73
2022/12/02 12:35:56;;;;;;;12.32;9.13;;;5.50;99.90;;;;;;5046144;28;20247;-73
2022/12/02 12:38:42;;;;;;;9.73;7.80;;;5.50;99.90;;;;;;5049521;28;20251;-73
2022/12/02 12:41:29;;;;;;;8.63;6.80;;;5.40;99.90;;;;;;5043667;28;20202;-73
2022/12/02 12:44:14;;;;;;;10.20;7.55;;;5.40;99.90;;;;;;5045178;28;20220;-74
2022/12/02 12:47:01;;;;;;;12.95;7.93;;;5.40;99.90;;;;;;5052831;28;20237;-73
2022/12/02 12:49:47;;;;;;;10.73;7.50;;;5.40;99.90;;;;;;5049145;28;20290;-73
2022/12/02 12:52:32;;;;;;;12.60;7.25;;;5.40;99.90;;;;;;5053004;28;20209;-72
2022/12/02 12:55:18;;;;;;;10.10;8.00;;;5.40;99.90;;;;;;5043842;28;20205;-72
2022/12/02 12:58:05;;;;;;;10.38;7.60;;;5.30;99.90;;;;;;5040948;28;20204;-73
2022/12/02 13:00:50;;;;;;;10.20;7.22;;;5.30;99.90;;;;;;5052932;28;20341;-73
2022/12/02 13:03:37;;;;;;;10.85;6.97;;;5.40;99.90;;;;;;5053147;28;20233;-72
2022/12/02 13:06:22;;;;;;;12.13;7.45;;;5.40;99.90;;;;;;5049549;28;20221;-72
2022/12/02 13:09:08;;;;;;;11.43;8.05;;;5.30;99.90;;;;;;5047227;28;20331;-72
2022/12/02 13:11:53;;;;;;;16.52;7.10;;;5.40;99.90;;;;;;5053308;28;20216;-73
2022/12/02 13:14:40;;;;;;;10.90;6.78;;;5.40;99.90;;;;;;5045390;28;20228;-72
2022/12/02 13:17:26;;;;;;;9.20;7.20;;;5.30;99.90;;;;;;5050970;28;20216;-72
2022/12/02 13:20:13;;;;;;;9.65;7.50;;;5.30;99.90;;;;;;5052436;28;20204;-72
2022/12/02 13:22:58;;;;;;;12.93;8.05;;;5.30;99.90;;;;;;5046259;28;20292;-73
2022/12/02 13:25:44;;;;;;;10.32;7.95;;;5.30;99.90;;;;;;5047248;28;20610;-73
2022/12/02 13:28:29;;;;;;;10.55;8.40;;;5.30;99.90;;;;;;5050789;28;20251;-73
2022/12/02 13:31:16;;;;;;;12.30;7.70;;;5.30;99.90;;;;;;5048570;28;20204;-72
2022/12/02 13:34:02;;;;;;;9.77;8.35;;;5.30;99.90;;;;;;5048073;28;20221;-73
2022/12/02 13:36:47;;;;;;;9.65;7.68;;;5.30;99.90;;;;;;5047975;28;20262;-73
2022/12/02 13:39:32;;;;;;;10.75;8.10;;;5.30;99.90;;;;;;5050122;28;20200;-73
2022/12/02 13:42:18;;;;;;;12.40;8.88;;;5.30;99.90;;;;;;5046545;28;20705;-72
2022/12/02 13:45:05;;;;;;;9.88;7.82;;;5.30;99.90;;;;;;5044272;28;20216;-73
2022/12/02 13:47:51;;;;;;;11.13;8.55;;;5.30;99.90;;;;;;5049178;28;20206;-73
2022/12/02 13:50:37;;;;;;;12.30;8.77;;;5.30;99.90;;;;;;5052233;28;20287;-73
2022/12/02 13:53:22;;;;;;;12.38;8.93;;;5.30;99.90;;;;;;5045537;28;20229;-73
2022/12/02 13:56:09;;;;;;;11.43;7.80;;;5.30;99.90;;;;;;5040528;28;21084;-72
2022/12/02 13:58:54;;;;;;;9.52;7.57;;;5.30;99.90;;;;;;5045360;28;20204;-72
2022/12/02 14:01:39;;;;;;;10.80;8.68;;;5.20;99.90;;;;;;5045797;28;20565;-73
2022/12/02 14:04:27;;;;;;;10.95;9.35;;;5.30;99.90;;;;;;5044434;28;20293;-72
2022/12/02 14:07:12;;;;;;;11.50;8.65;;;5.20;99.90;;;;;;5051751;28;20233;-72
2022/12/02 14:09:58;;;;;;;17.00;9.15;;;5.20;99.90;;;;;;5047062;28;20296;-72
2022/12/02 14:12:43;;;;;;;16.92;11.15;;;5.20;99.90;;;;;;5047780;28;20201;-73
2022/12/02 14:15:29;;;;;;;13.48;9.70;;;5.20;99.90;;;;;;5047621;28;20259;-73
2022/12/02 14:18:14;;;;;;;13.82;9.98;;;5.30;99.90;;;;;;5052541;28;20702;-73
2022/12/02 14:21:01;;;;;;;16.30;11.30;;;5.30;99.90;;;;;;5045243;28;20328;-73
2022/12/02 14:23:47;;;;;;;14.07;11.55;;;5.30;99.90;;;;;;5044502;28;20256;-73
2022/12/02 14:26:32;;;;;;;14.45;10.65;;;5.20;99.90;;;;;;5045169;28;20229;-73